Sara — WDI5167 — position and weather

sailwx.info

Track history (hours):
 
Tides and Currents Weather Stations Pressure Air Temp Water Temp Dewpoint Dewpoint Depression Visibility Wind Speed Wind Dir Waves Ship Positions

Sara

Owner: Miami River Towing Company Inc., Miami, FL. More information available from US FCC via Universal Licensing System and Coast Guard Vessel Documentation Center.

Last reported at 2018-Feb-26 17:13 UTC. Time now 2018-May-25 18:56 UTC.
Position N 25°48' W 080°15'.
Warning: this ship's position is months out of date.

Length 16 m; draft 2 m.

Type: Towing. MMSI: 367705810.

Date/timePositionNaut miles runAvg speedWind from/ knotsBaromVisibWave heightAir tempDewpointWater temp
2018-Feb-26 17:13N 25°48' W 080°15'0 0.1
2018-Feb-26 17:00N 25°48' W 080°15'1 1.0
2018-Feb-26 16:31N 25°48' W 080°15'0 0.0
2018-Feb-26 16:00N 25°48' W 080°15'0 0.0
2018-Feb-26 15:31N 25°48' W 080°15'0 0.0
2018-Feb-26 15:00N 25°48' W 080°15'0 0.0
2018-Feb-26 14:30N 25°48' W 080°15'0 0.0
2018-Feb-26 14:00N 25°48' W 080°15'1 2.5
2018-Feb-26 13:30N 25°47' W 080°14'2 4.9
2018-Feb-26 13:00N 25°46' W 080°11'1 1.2
2018-Feb-26 12:30N 25°46' W 080°12'1 2.7
2018-Feb-26 12:00N 25°47' W 080°13'1 2.6
2018-Feb-26 11:30N 25°47' W 080°14'1 1.9
2018-Feb-26 11:00N 25°48' W 080°15'0 0.0
2018-Feb-26 10:30N 25°48' W 080°15'0 0.0
2018-Feb-25 21:24N 25°48' W 080°15'1 1.6
2018-Feb-25 21:00N 25°48' W 080°14'1 2.5
2018-Feb-25 20:30N 25°47' W 080°13'1 2.8
2018-Feb-25 20:00N 25°46' W 080°12'1 2.6
2018-Feb-25 19:30N 25°46' W 080°11'0 0.2
2018-Feb-25 19:00N 25°46' W 080°10'0 0.0
2018-Feb-25 18:30N 25°46' W 080°10'0 0.0
2018-Feb-25 18:00N 25°46' W 080°10'0 0.0
2018-Feb-25 17:30N 25°46' W 080°10'0 0.0
2018-Feb-25 17:00N 25°46' W 080°10'0 0.0
2018-Feb-25 16:30N 25°46' W 080°10'0 0.0
2018-Feb-25 16:00N 25°46' W 080°10'0 0.0
2018-Feb-25 15:30N 25°46' W 080°10'0 0.0
2018-Feb-25 15:00N 25°46' W 080°10'0 0.0
2018-Feb-25 14:30N 25°46' W 080°10'0 0.0
2018-Feb-25 14:00N 25°46' W 080°10'0 0.0
2018-Feb-25 13:30N 25°46' W 080°10'0 0.6
2018-Feb-25 13:00N 25°46' W 080°11'1 2.3
2018-Feb-25 12:30N 25°46' W 080°12'1 2.6
2018-Feb-25 12:00N 25°47' W 080°13'1 2.5
2018-Feb-25 11:30N 25°48' W 080°14'1 1.3
2018-Feb-25 11:00N 25°48' W 080°15'0 0.0
2018-Feb-25 10:30N 25°48' W 080°15'0 0.0
2018-Feb-25 00:51N 25°48' W 080°15'2 5.1
2018-Feb-25 00:30N 25°47' W 080°13'3 5.0
2018-Feb-25 00:00N 25°46' W 080°11'1 2.2
2018-Feb-24 23:30N 25°46' W 080°12'1 2.7
2018-Feb-24 23:00N 25°47' W 080°13'1 2.6
2018-Feb-24 22:30N 25°48' W 080°14'0 0.7
2018-Feb-24 22:00N 25°48' W 080°15'0 0.0
2018-Feb-24 21:30N 25°48' W 080°15'0 0.2
2018-Feb-24 21:00N 25°48' W 080°15'1 2.6
2018-Feb-24 20:30N 25°47' W 080°13'1 3.0
2018-Feb-24 20:00N 25°46' W 080°12'1 2.7
2018-Feb-24 19:30N 25°46' W 080°10'2 5.0
2018-Feb-24 19:00N 25°47' W 080°13'2 4.0
2018-Feb-24 18:30N 25°48' W 080°15'0 0.0
2018-Feb-24 18:00N 25°48' W 080°15'0 0.0
2018-Feb-24 17:29N 25°48' W 080°15'0 0.0
2018-Feb-24 17:00N 25°48' W 080°15'0 0.0
2018-Feb-24 16:30N 25°48' W 080°15'0 0.0
2018-Feb-24 16:00N 25°48' W 080°15'0 0.0
2018-Feb-24 15:30N 25°48' W 080°15'0 0.0
2018-Feb-24 15:00N 25°48' W 080°15'0 0.0
2018-Feb-24 14:30N 25°48' W 080°15'0 0.0
2018-Feb-24 14:00N 25°48' W 080°15'0 0.0
2018-Feb-24 13:30N 25°48' W 080°15'0 0.0
2018-Feb-24 13:00N 25°48' W 080°15'0 0.0
2018-Feb-24 12:30N 25°48' W 080°15'0 0.0
2018-Feb-24 12:00N 25°48' W 080°15'0 0.0
2018-Feb-24 11:30N 25°48' W 080°15'0 0.0
2018-Feb-24 11:00N 25°48' W 080°15'0 0.0
2018-Feb-24 10:30N 25°48' W 080°15'0 0.0
2018-Feb-24 10:00N 25°48' W 080°15'0 0.0
2018-Feb-24 09:30N 25°48' W 080°15'0 0.9
2018-Feb-24 09:00N 25°48' W 080°15'1 2.6
2018-Feb-24 08:30N 25°47' W 080°13'2 2.9
2018-Feb-24 07:58N 25°46' W 080°12'1 2.9
2018-Feb-24 07:30N 25°46' W 080°10'2 3.5
2018-Feb-24 07:00N 25°47' W 080°12'3 5.5
2018-Feb-24 06:30N 25°48' W 080°15'0 0.0
2018-Feb-24 06:00N 25°48' W 080°15'0 0.0
2018-Feb-23 22:03N 25°48' W 080°15'0 0.0
2018-Feb-23 22:00N 25°48' W 080°15'0 0.0
2018-Feb-23 21:30N 25°48' W 080°15'0 0.0
2018-Feb-23 21:00N 25°48' W 080°15'0 0.0
2018-Feb-23 20:30N 25°48' W 080°15'0 0.0
2018-Feb-23 20:00N 25°48' W 080°15'0 0.0
2018-Feb-23 19:30N 25°48' W 080°15'0 0.0
2018-Feb-23 19:00N 25°48' W 080°15'0 0.0
2018-Feb-23 18:30N 25°48' W 080°15'0 0.0
2018-Feb-23 18:01N 25°48' W 080°15'0 0.0
2018-Feb-23 17:30N 25°48' W 080°15'0 0.0
2018-Feb-23 17:00N 25°48' W 080°15'0 0.0
2018-Feb-23 16:31N 25°48' W 080°15'0 0.0
2018-Feb-23 16:01N 25°48' W 080°15'0 0.0
2018-Feb-23 15:30N 25°48' W 080°15'0 0.0
2018-Feb-23 15:00N 25°48' W 080°15'0 0.0
2018-Feb-23 14:31N 25°48' W 080°15'0 0.0
2018-Feb-23 14:00N 25°48' W 080°15'0 0.0
2018-Feb-23 13:31N 25°48' W 080°15'0 0.0
2018-Feb-22 15:36N 25°48' W 080°15'0 0.0
2018-Feb-22 15:30N 25°48' W 080°15'0 0.0
2018-Feb-22 15:00N 25°48' W 080°15'0 0.0
2018-Feb-22 14:30N 25°48' W 080°15'0 0.0
2018-Feb-22 14:00N 25°48' W 080°15'0 0.0
2018-Feb-22 13:30N 25°48' W 080°15'0 0.0
2018-Feb-22 13:00N 25°48' W 080°15'0 0.0
2018-Feb-22 12:30N 25°48' W 080°15'0 0.0
2018-Feb-22 12:00N 25°48' W 080°15'0 0.0
2018-Feb-22 11:30N 25°48' W 080°15'0 0.0
2018-Feb-22 11:00N 25°48' W 080°15'1 1.6
2018-Feb-22 10:30N 25°48' W 080°14'3 5.1
2018-Feb-22 10:00N 25°46' W 080°12'0 1.0
2018-Feb-22 09:30N 25°46' W 080°11'1 2.5
2018-Feb-22 09:00N 25°47' W 080°13'1 2.7
2018-Feb-22 08:30N 25°47' W 080°14'1 1.8
2018-Feb-22 08:00N 25°48' W 080°15'0 0.5
2018-Feb-22 07:30N 25°48' W 080°15'0 0.0
2018-Feb-20 14:51N 25°48' W 080°15'0 1.0
2018-Feb-20 14:30N 25°48' W 080°15'1 2.1
2018-Feb-20 14:00N 25°47' W 080°14'1 2.8
2018-Feb-20 13:30N 25°47' W 080°12'1 2.2
2018-Feb-20 13:00N 25°46' W 080°11'0 0.8
2018-Feb-20 12:30N 25°46' W 080°12'3 6.2
2018-Feb-20 12:00N 25°48' W 080°15'0 0.9
2018-Feb-20 11:30N 25°48' W 080°15'0 0.0
2018-Feb-20 11:00N 25°48' W 080°15'0 0.0
2018-Feb-18 17:31N 25°48' W 080°15'0 0.3
2018-Feb-18 17:30N 25°48' W 080°15'3 5.8
2018-Feb-18 17:00N 25°47' W 080°12'1 2.7
2018-Feb-18 16:30N 25°46' W 080°11'1 2.5
2018-Feb-18 16:00N 25°46' W 080°12'2 3.3
2018-Feb-18 15:30N 25°47' W 080°14'1 2.3
2018-Feb-18 15:00N 25°48' W 080°15'0 0.6
2018-Feb-18 14:30N 25°48' W 080°15'0 0.0
2018-Feb-18 14:00N 25°48' W 080°15'0 0.0
2018-Feb-18 13:30N 25°48' W 080°15'0 0.0
2018-Feb-18 13:00N 25°48' W 080°15'0 0.0
2018-Feb-18 12:30N 25°48' W 080°15'0 0.0
2018-Feb-18 12:00N 25°48' W 080°15'0 0.0
2018-Feb-18 11:30N 25°48' W 080°15'0 0.0
2018-Feb-18 11:00N 25°48' W 080°15'0 0.0
2018-Feb-18 10:30N 25°48' W 080°15'0 0.0
2018-Feb-18 10:00N 25°48' W 080°15'0 0.0
2018-Feb-18 09:30N 25°48' W 080°15'0 0.0
2018-Feb-18 09:00N 25°48' W 080°15'0 0.0
2018-Feb-18 08:30N 25°48' W 080°15'0 0.0
2018-Feb-18 08:00N 25°48' W 080°15'0 0.0
2018-Feb-18 07:30N 25°48' W 080°15'0 0.0
2018-Feb-18 07:00N 25°48' W 080°15'0 0.0
2018-Feb-18 06:30N 25°48' W 080°15'0 0.0
2018-Feb-18 06:00N 25°48' W 080°15'0 0.0
2018-Feb-18 05:29N 25°48' W 080°15'3 5.6
2018-Feb-18 05:00N 25°47' W 080°12'2 3.1
2018-Feb-18 04:30N 25°46' W 080°11'1 2.4
2018-Feb-18 04:00N 25°46' W 080°12'1 2.7
2018-Feb-18 03:30N 25°47' W 080°13'1 2.6
2018-Feb-18 03:00N 25°48' W 080°15'0 1.0
2018-Feb-18 02:30N 25°48' W 080°15'0 0.0
2018-Feb-18 02:00N 25°48' W 080°15'0 0.0
2018-Feb-18 01:30N 25°48' W 080°15'0 0.7
2018-Feb-18 01:00N 25°48' W 080°15'1 2.3
2018-Feb-18 00:30N 25°47' W 080°14'1 2.9
2018-Feb-18 00:00N 25°47' W 080°12'1 2.6
2018-Feb-17 23:30N 25°46' W 080°11'1 1.4
2018-Feb-17 23:00N 25°46' W 080°11'3 5.7
2018-Feb-17 22:30N 25°48' W 080°14'1 0.2
2018-Feb-17 18:20N 25°48' W 080°15'1 4.4
2018-Feb-17 18:01N 25°47' W 080°14'2 4.8
2018-Feb-17 17:30N 25°46' W 080°11'0 0.8
2018-Feb-17 17:01N 25°46' W 080°12'1 2.5
2018-Feb-17 16:31N 25°47' W 080°13'1 2.2
2018-Feb-17 16:00N 25°47' W 080°14'1 2.0
2018-Feb-17 15:31N 25°48' W 080°15'0 0.3
2018-Feb-17 15:01N 25°48' W 080°15'1 2.7
2018-Feb-17 14:30N 25°47' W 080°13'2 3.2
2018-Feb-17 14:00N 25°46' W 080°12'2 3.1
2018-Feb-17 13:31N 25°46' W 080°10'0 0.5
2018-Feb-17 13:01N 25°46' W 080°10'3 5.4
2018-Feb-17 12:31N 25°47' W 080°13'1 2.1
2018-Feb-17 12:00N 25°48' W 080°14'2 3.3
2018-Feb-17 11:30N 25°47' W 080°13'1 3.0
2018-Feb-17 11:01N 25°46' W 080°11'1 1.6
2018-Feb-17 10:31N 25°46' W 080°10'0 0.0
2018-Feb-17 10:00N 25°46' W 080°10'0 0.0
2018-Feb-17 09:31N 25°46' W 080°10'0 0.0
2018-Feb-17 09:01N 25°46' W 080°10'0 0.0
2018-Feb-17 08:30N 25°46' W 080°10'0 0.0
2018-Feb-17 08:00N 25°46' W 080°10'0 0.0
2018-Feb-17 07:31N 25°46' W 080°10'0 0.0
2018-Feb-17 07:01N 25°46' W 080°10'0 0.0
2018-Feb-17 06:31N 25°46' W 080°10'0 0.1
2018-Feb-17 06:00N 25°46' W 080°10'3 5.6
2018-Feb-17 05:30N 25°47' W 080°13'1 2.9
2018-Feb-17 05:00N 25°48' W 080°15'0 0.0
2018-Feb-17 04:30N 25°48' W 080°15'0 0.5
2018-Feb-17 04:01N 25°48' W 080°15'0 0.0
2018-Feb-17 03:30N 25°48' W 080°15'0 0.0
2018-Feb-17 02:59N 25°48' W 080°15'0 0.0
2018-Feb-17 02:30N 25°48' W 080°15'0 0.0
2018-Feb-17 02:01N 25°48' W 080°15'0 0.0
2018-Feb-17 01:30N 25°48' W 080°15'0 0.0
2018-Feb-17 01:01N 25°48' W 080°15'0 0.0
2018-Feb-17 00:30N 25°48' W 080°15'0 0.0
2018-Feb-17 00:01N 25°48' W 080°15'0 0.0
2018-Feb-16 23:30N 25°48' W 080°15'0 0.0
2018-Feb-16 23:01N 25°48' W 080°15'0 0.0
2018-Feb-16 22:31N 25°48' W 080°15'0 0.0
2018-Feb-16 22:00N 25°48' W 080°15'  
Track history (hours):
 
Tides and Currents Weather Stations Pressure Air Temp Water Temp Dewpoint Dewpoint Depression Visibility Wind Speed Wind Dir Waves Ship Positions

Sara

Owner: Miami River Towing Company Inc., Miami, FL. More information available from US FCC via Universal Licensing System and Coast Guard Vessel Documentation Center.

Last reported at 2018-Feb-26 17:13 UTC. Time now 2018-May-25 18:56 UTC.
Position N 25°48' W 080°15'.
Warning: this ship's position is months out of date.

Length 16 m; draft 2 m.

Type: Towing. MMSI: 367705810.

Date/timePositionNaut miles runAvg speedWind from/ knotsBaromVisibWave heightAir tempDewpointWater temp
2018-Feb-26 17:13N 25°48' W 080°15'0 0.1
2018-Feb-26 17:00N 25°48' W 080°15'1 1.0
2018-Feb-26 16:31N 25°48' W 080°15'0 0.0
2018-Feb-26 16:00N 25°48' W 080°15'0 0.0
2018-Feb-26 15:31N 25°48' W 080°15'0 0.0
2018-Feb-26 15:00N 25°48' W 080°15'0 0.0
2018-Feb-26 14:30N 25°48' W 080°15'0 0.0
2018-Feb-26 14:00N 25°48' W 080°15'1 2.5
2018-Feb-26 13:30N 25°47' W 080°14'2 4.9
2018-Feb-26 13:00N 25°46' W 080°11'1 1.2
2018-Feb-26 12:30N 25°46' W 080°12'1 2.7
2018-Feb-26 12:00N 25°47' W 080°13'1 2.6
2018-Feb-26 11:30N 25°47' W 080°14'1 1.9
2018-Feb-26 11:00N 25°48' W 080°15'0 0.0
2018-Feb-26 10:30N 25°48' W 080°15'0 0.0
2018-Feb-25 21:24N 25°48' W 080°15'1 1.6
2018-Feb-25 21:00N 25°48' W 080°14'1 2.5
2018-Feb-25 20:30N 25°47' W 080°13'1 2.8
2018-Feb-25 20:00N 25°46' W 080°12'1 2.6
2018-Feb-25 19:30N 25°46' W 080°11'0 0.2
2018-Feb-25 19:00N 25°46' W 080°10'0 0.0
2018-Feb-25 18:30N 25°46' W 080°10'0 0.0
2018-Feb-25 18:00N 25°46' W 080°10'0 0.0
2018-Feb-25 17:30N 25°46' W 080°10'0 0.0
2018-Feb-25 17:00N 25°46' W 080°10'0 0.0
2018-Feb-25 16:30N 25°46' W 080°10'0 0.0
2018-Feb-25 16:00N 25°46' W 080°10'0 0.0
2018-Feb-25 15:30N 25°46' W 080°10'0 0.0
2018-Feb-25 15:00N 25°46' W 080°10'0 0.0
2018-Feb-25 14:30N 25°46' W 080°10'0 0.0
2018-Feb-25 14:00N 25°46' W 080°10'0 0.0
2018-Feb-25 13:30N 25°46' W 080°10'0 0.6
2018-Feb-25 13:00N 25°46' W 080°11'1 2.3
2018-Feb-25 12:30N 25°46' W 080°12'1 2.6
2018-Feb-25 12:00N 25°47' W 080°13'1 2.5
2018-Feb-25 11:30N 25°48' W 080°14'1 1.3
2018-Feb-25 11:00N 25°48' W 080°15'0 0.0
2018-Feb-25 10:30N 25°48' W 080°15'0 0.0
2018-Feb-25 00:51N 25°48' W 080°15'2 5.1
2018-Feb-25 00:30N 25°47' W 080°13'3 5.0
2018-Feb-25 00:00N 25°46' W 080°11'1 2.2
2018-Feb-24 23:30N 25°46' W 080°12'1 2.7
2018-Feb-24 23:00N 25°47' W 080°13'1 2.6
2018-Feb-24 22:30N 25°48' W 080°14'0 0.7
2018-Feb-24 22:00N 25°48' W 080°15'0 0.0
2018-Feb-24 21:30N 25°48' W 080°15'0 0.2
2018-Feb-24 21:00N 25°48' W 080°15'1 2.6
2018-Feb-24 20:30N 25°47' W 080°13'1 3.0
2018-Feb-24 20:00N 25°46' W 080°12'1 2.7
2018-Feb-24 19:30N 25°46' W 080°10'2 5.0
2018-Feb-24 19:00N 25°47' W 080°13'2 4.0
2018-Feb-24 18:30N 25°48' W 080°15'0 0.0
2018-Feb-24 18:00N 25°48' W 080°15'0 0.0
2018-Feb-24 17:29N 25°48' W 080°15'0 0.0
2018-Feb-24 17:00N 25°48' W 080°15'0 0.0
2018-Feb-24 16:30N 25°48' W 080°15'0 0.0
2018-Feb-24 16:00N 25°48' W 080°15'0 0.0
2018-Feb-24 15:30N 25°48' W 080°15'0 0.0
2018-Feb-24 15:00N 25°48' W 080°15'0 0.0
2018-Feb-24 14:30N 25°48' W 080°15'0 0.0
2018-Feb-24 14:00N 25°48' W 080°15'0 0.0
2018-Feb-24 13:30N 25°48' W 080°15'0 0.0
2018-Feb-24 13:00N 25°48' W 080°15'0 0.0
2018-Feb-24 12:30N 25°48' W 080°15'0 0.0
2018-Feb-24 12:00N 25°48' W 080°15'0 0.0
2018-Feb-24 11:30N 25°48' W 080°15'0 0.0
2018-Feb-24 11:00N 25°48' W 080°15'0 0.0
2018-Feb-24 10:30N 25°48' W 080°15'0 0.0
2018-Feb-24 10:00N 25°48' W 080°15'0 0.0
2018-Feb-24 09:30N 25°48' W 080°15'0 0.9
2018-Feb-24 09:00N 25°48' W 080°15'1 2.6
2018-Feb-24 08:30N 25°47' W 080°13'2 2.9
2018-Feb-24 07:58N 25°46' W 080°12'1 2.9
2018-Feb-24 07:30N 25°46' W 080°10'2 3.5
2018-Feb-24 07:00N 25°47' W 080°12'3 5.5
2018-Feb-24 06:30N 25°48' W 080°15'0 0.0
2018-Feb-24 06:00N 25°48' W 080°15'0 0.0
2018-Feb-23 22:03N 25°48' W 080°15'0 0.0
2018-Feb-23 22:00N 25°48' W 080°15'0 0.0
2018-Feb-23 21:30N 25°48' W 080°15'0 0.0
2018-Feb-23 21:00N 25°48' W 080°15'0 0.0
2018-Feb-23 20:30N 25°48' W 080°15'0 0.0
2018-Feb-23 20:00N 25°48' W 080°15'0 0.0
2018-Feb-23 19:30N 25°48' W 080°15'0 0.0
2018-Feb-23 19:00N 25°48' W 080°15'0 0.0
2018-Feb-23 18:30N 25°48' W 080°15'0 0.0
2018-Feb-23 18:01N 25°48' W 080°15'0 0.0
2018-Feb-23 17:30N 25°48' W 080°15'0 0.0
2018-Feb-23 17:00N 25°48' W 080°15'0 0.0
2018-Feb-23 16:31N 25°48' W 080°15'0 0.0
2018-Feb-23 16:01N 25°48' W 080°15'0 0.0
2018-Feb-23 15:30N 25°48' W 080°15'0 0.0
2018-Feb-23 15:00N 25°48' W 080°15'0 0.0
2018-Feb-23 14:31N 25°48' W 080°15'0 0.0
2018-Feb-23 14:00N 25°48' W 080°15'0 0.0
2018-Feb-23 13:31N 25°48' W 080°15'0 0.0
2018-Feb-22 15:36N 25°48' W 080°15'0 0.0
2018-Feb-22 15:30N 25°48' W 080°15'0 0.0
2018-Feb-22 15:00N 25°48' W 080°15'0 0.0
2018-Feb-22 14:30N 25°48' W 080°15'0 0.0
2018-Feb-22 14:00N 25°48' W 080°15'0 0.0
2018-Feb-22 13:30N 25°48' W 080°15'0 0.0
2018-Feb-22 13:00N 25°48' W 080°15'0 0.0
2018-Feb-22 12:30N 25°48' W 080°15'0 0.0
2018-Feb-22 12:00N 25°48' W 080°15'0 0.0
2018-Feb-22 11:30N 25°48' W 080°15'0 0.0
2018-Feb-22 11:00N 25°48' W 080°15'1 1.6
2018-Feb-22 10:30N 25°48' W 080°14'3 5.1
2018-Feb-22 10:00N 25°46' W 080°12'0 1.0
2018-Feb-22 09:30N 25°46' W 080°11'1 2.5
2018-Feb-22 09:00N 25°47' W 080°13'1 2.7
2018-Feb-22 08:30N 25°47' W 080°14'1 1.8
2018-Feb-22 08:00N 25°48' W 080°15'0 0.5
2018-Feb-22 07:30N 25°48' W 080°15'0 0.0
2018-Feb-20 14:51N 25°48' W 080°15'0 1.0
2018-Feb-20 14:30N 25°48' W 080°15'1 2.1
2018-Feb-20 14:00N 25°47' W 080°14'1 2.8
2018-Feb-20 13:30N 25°47' W 080°12'1 2.2
2018-Feb-20 13:00N 25°46' W 080°11'0 0.8
2018-Feb-20 12:30N 25°46' W 080°12'3 6.2
2018-Feb-20 12:00N 25°48' W 080°15'0 0.9
2018-Feb-20 11:30N 25°48' W 080°15'0 0.0
2018-Feb-20 11:00N 25°48' W 080°15'0 0.0
2018-Feb-18 17:31N 25°48' W 080°15'0 0.3
2018-Feb-18 17:30N 25°48' W 080°15'3 5.8
2018-Feb-18 17:00N 25°47' W 080°12'1 2.7
2018-Feb-18 16:30N 25°46' W 080°11'1 2.5
2018-Feb-18 16:00N 25°46' W 080°12'2 3.3
2018-Feb-18 15:30N 25°47' W 080°14'1 2.3
2018-Feb-18 15:00N 25°48' W 080°15'0 0.6
2018-Feb-18 14:30N 25°48' W 080°15'0 0.0
2018-Feb-18 14:00N 25°48' W 080°15'0 0.0
2018-Feb-18 13:30N 25°48' W 080°15'0 0.0
2018-Feb-18 13:00N 25°48' W 080°15'0 0.0
2018-Feb-18 12:30N 25°48' W 080°15'0 0.0
2018-Feb-18 12:00N 25°48' W 080°15'0 0.0
2018-Feb-18 11:30N 25°48' W 080°15'0 0.0
2018-Feb-18 11:00N 25°48' W 080°15'0 0.0
2018-Feb-18 10:30N 25°48' W 080°15'0 0.0
2018-Feb-18 10:00N 25°48' W 080°15'0 0.0
2018-Feb-18 09:30N 25°48' W 080°15'0 0.0
2018-Feb-18 09:00N 25°48' W 080°15'0 0.0
2018-Feb-18 08:30N 25°48' W 080°15'0 0.0
2018-Feb-18 08:00N 25°48' W 080°15'0 0.0
2018-Feb-18 07:30N 25°48' W 080°15'0 0.0
2018-Feb-18 07:00N 25°48' W 080°15'0 0.0
2018-Feb-18 06:30N 25°48' W 080°15'0 0.0
2018-Feb-18 06:00N 25°48' W 080°15'0 0.0
2018-Feb-18 05:29N 25°48' W 080°15'3 5.6
2018-Feb-18 05:00N 25°47' W 080°12'2 3.1
2018-Feb-18 04:30N 25°46' W 080°11'1 2.4
2018-Feb-18 04:00N 25°46' W 080°12'1 2.7
2018-Feb-18 03:30N 25°47' W 080°13'1 2.6
2018-Feb-18 03:00N 25°48' W 080°15'0 1.0
2018-Feb-18 02:30N 25°48' W 080°15'0 0.0
2018-Feb-18 02:00N 25°48' W 080°15'0 0.0
2018-Feb-18 01:30N 25°48' W 080°15'0 0.7
2018-Feb-18 01:00N 25°48' W 080°15'1 2.3
2018-Feb-18 00:30N 25°47' W 080°14'1 2.9
2018-Feb-18 00:00N 25°47' W 080°12'1 2.6
2018-Feb-17 23:30N 25°46' W 080°11'1 1.4
2018-Feb-17 23:00N 25°46' W 080°11'3 5.7
2018-Feb-17 22:30N 25°48' W 080°14'1 0.2
2018-Feb-17 18:20N 25°48' W 080°15'1 4.4
2018-Feb-17 18:01N 25°47' W 080°14'2 4.8
2018-Feb-17 17:30N 25°46' W 080°11'0 0.8
2018-Feb-17 17:01N 25°46' W 080°12'1 2.5
2018-Feb-17 16:31N 25°47' W 080°13'1 2.2
2018-Feb-17 16:00N 25°47' W 080°14'1 2.0
2018-Feb-17 15:31N 25°48' W 080°15'0 0.3
2018-Feb-17 15:01N 25°48' W 080°15'1 2.7
2018-Feb-17 14:30N 25°47' W 080°13'2 3.2
2018-Feb-17 14:00N 25°46' W 080°12'2 3.1
2018-Feb-17 13:31N 25°46' W 080°10'0 0.5
2018-Feb-17 13:01N 25°46' W 080°10'3 5.4
2018-Feb-17 12:31N 25°47' W 080°13'1 2.1
2018-Feb-17 12:00N 25°48' W 080°14'2 3.3
2018-Feb-17 11:30N 25°47' W 080°13'1 3.0
2018-Feb-17 11:01N 25°46' W 080°11'1 1.6
2018-Feb-17 10:31N 25°46' W 080°10'0 0.0
2018-Feb-17 10:00N 25°46' W 080°10'0 0.0
2018-Feb-17 09:31N 25°46' W 080°10'0 0.0
2018-Feb-17 09:01N 25°46' W 080°10'0 0.0
2018-Feb-17 08:30N 25°46' W 080°10'0 0.0
2018-Feb-17 08:00N 25°46' W 080°10'0 0.0
2018-Feb-17 07:31N 25°46' W 080°10'0 0.0
2018-Feb-17 07:01N 25°46' W 080°10'0 0.0
2018-Feb-17 06:31N 25°46' W 080°10'0 0.1
2018-Feb-17 06:00N 25°46' W 080°10'3 5.6
2018-Feb-17 05:30N 25°47' W 080°13'1 2.9
2018-Feb-17 05:00N 25°48' W 080°15'0 0.0
2018-Feb-17 04:30N 25°48' W 080°15'0 0.5
2018-Feb-17 04:01N 25°48' W 080°15'0 0.0
2018-Feb-17 03:30N 25°48' W 080°15'0 0.0
2018-Feb-17 02:59N 25°48' W 080°15'0 0.0
2018-Feb-17 02:30N 25°48' W 080°15'0 0.0
2018-Feb-17 02:01N 25°48' W 080°15'0 0.0
2018-Feb-17 01:30N 25°48' W 080°15'0 0.0
2018-Feb-17 01:01N 25°48' W 080°15'0 0.0
2018-Feb-17 00:30N 25°48' W 080°15'0 0.0
2018-Feb-17 00:01N 25°48' W 080°15'0 0.0
2018-Feb-16 23:30N 25°48' W 080°15'0 0.0
2018-Feb-16 23:01N 25°48' W 080°15'0 0.0
2018-Feb-16 22:31N 25°48' W 080°15'0 0.0
2018-Feb-16 22:00N 25°48' W 080°15'  

Dump ship's entire track history